Boars Hill, United Kingdom
Current Conditions -  °F | °C
As of 10:20 PM on Thursday 30 Oct 2014 (Local Time) from EGTK Reporting Station
Haze Haze  
Wind Chill: 55°   Ceiling: Unl
Heat Index: 55°   Visibility: 2.7mi
Dew Point: 55°   Wind: 5mph
Humidity: 100%   Direction: 170°S
Pressure: 30.03"   Gusts: NA
Location:  51.72°N, 1.29°W
Report Text: EGTK 302220Z 17004KT 4400 BR NSC 13/13 Q1017
Loading
Personal Weather Stations






























Interactive Weather Map
Tropical Storm Tracking
New forecast layout! Learn more

10-Day Weather Forecast

Advertisements
Track Severe Weather on mobile